createdAt,value
2022-09-15T00:01:27.909Z,99427.41
2022-09-15T00:03:55.730Z,99426.38
2022-09-15T00:06:23.669Z,99436.03
2022-09-15T00:08:51.507Z,99437.66
2022-09-15T00:11:22.948Z,99437.66
2022-09-15T00:13:52.355Z,99435.66
2022-09-15T00:16:26.386Z,99434.81
2022-09-15T00:18:54.702Z,99435.00
2022-09-15T00:21:24.900Z,99435.66
2022-09-15T00:23:53.048Z,99432.13
2022-09-15T00:26:24.503Z,99429.47
2022-09-15T00:28:55.677Z,99427.84
2022-09-15T00:31:26.183Z,99430.50
2022-09-15T00:33:56.057Z,99426.19
2022-09-15T00:36:27.692Z,99420.44
2022-09-15T00:38:56.091Z,99419.63
2022-09-15T00:41:26.226Z,99421.47
2022-09-15T00:43:56.950Z,99412.84
2022-09-15T00:46:30.959Z,99411.81
2022-09-15T00:49:04.850Z,99419.81
2022-09-15T00:51:38.200Z,99419.22
2022-09-15T00:54:09.387Z,99420.25
2022-09-15T00:56:41.779Z,99417.75
2022-09-15T00:59:17.900Z,99417.75
2022-09-15T01:01:48.116Z,99415.28
2022-09-15T01:04:17.493Z,99411.38
2022-09-15T01:06:49.011Z,99416.06
2022-09-15T01:09:20.417Z,99419.53
2022-09-15T01:11:50.145Z,99418.91
2022-09-15T01:14:18.267Z,99427.31
2022-09-15T01:16:54.564Z,99418.03
2022-09-15T01:20:04.543Z,99419.06
2022-09-15T01:22:39.599Z,99415.78
2022-09-15T01:25:11.260Z,99412.28
2022-09-15T01:28:15.202Z,99420.50
2022-09-15T01:30:52.035Z,99414.72
2022-09-15T01:33:32.164Z,99422.06
2022-09-15T01:36:11.578Z,99406.63
2022-09-15T01:38:51.539Z,99414.63
2022-09-15T01:41:25.899Z,99419.34
2022-09-15T01:43:59.585Z,99418.72
2022-09-15T01:46:32.444Z,99416.06
2022-09-15T01:49:02.985Z,99410.31
2022-09-15T01:51:33.240Z,99407.81
2022-09-15T01:54:04.039Z,99404.72
2022-09-15T01:56:32.069Z,99409.44
2022-09-15T01:58:59.945Z,99415.97
2022-09-15T02:01:34.852Z,99411.00
2022-09-15T02:04:11.991Z,99413.47
2022-09-15T02:06:47.281Z,99416.31
2022-09-15T02:09:21.895Z,99403.16
2022-09-15T02:11:58.957Z,99400.91
2022-09-15T02:14:43.111Z,99406.22
2022-09-15T02:17:15.929Z,99409.25
2022-09-15T02:19:50.458Z,99408.03
2022-09-15T02:22:23.415Z,99406.81
2022-09-15T02:24:57.020Z,99401.84
2022-09-15T02:27:28.157Z,99388.94
2022-09-15T02:30:00.905Z,99398.75
2022-09-15T02:32:31.635Z,99403.28
2022-09-15T02:35:06.638Z,99399.78
2022-09-15T02:37:37.584Z,99407.78
2022-09-15T02:40:07.023Z,99410.44
2022-09-15T02:42:35.483Z,99407.34
2022-09-15T02:45:04.777Z,99402.19
2022-09-15T02:47:34.191Z,99408.53
2022-09-15T02:50:02.343Z,99401.19
2022-09-15T02:52:30.165Z,99405.88
2022-09-15T02:54:58.176Z,99409.75
2022-09-15T02:57:26.226Z,99403.44
2022-09-15T03:00:11.430Z,99411.59
2022-09-15T03:02:41.323Z,99417.56
2022-09-15T03:05:10.619Z,99416.53
2022-09-15T03:07:39.046Z,99420.22
2022-09-15T03:10:08.888Z,99417.56
2022-09-15T03:12:39.454Z,99423.28
2022-09-15T03:15:10.162Z,99427.41
2022-09-15T03:17:42.456Z,99434.16
2022-09-15T03:20:12.679Z,99431.72
2022-09-15T03:22:40.870Z,99430.69
2022-09-15T03:25:10.496Z,99424.94
2022-09-15T03:27:38.619Z,99432.59
2022-09-15T03:30:08.339Z,99423.06
2022-09-15T03:32:36.608Z,99425.69
2022-09-15T03:35:07.237Z,99438.38
2022-09-15T03:37:37.311Z,99441.06
2022-09-15T03:40:06.144Z,99441.41
2022-09-15T03:42:34.125Z,99448.78
2022-09-15T03:45:01.999Z,99444.22
2022-09-15T03:47:29.941Z,99446.63
2022-09-15T03:49:58.130Z,99447.06
2022-09-15T03:52:27.454Z,99443.78
2022-09-15T03:54:55.618Z,99450.75
2022-09-15T03:57:26.496Z,99452.72
2022-09-15T03:59:54.390Z,99453.09
2022-09-15T04:02:22.387Z,99446.56
2022-09-15T04:04:51.402Z,99454.28
2022-09-15T04:07:19.231Z,99456.78
2022-09-15T04:09:48.584Z,99459.13
2022-09-15T04:12:16.681Z,99468.16
2022-09-15T04:14:44.899Z,99473.28
2022-09-15T04:17:12.698Z,99469.78
2022-09-15T04:19:40.623Z,99466.50
2022-09-15T04:22:08.493Z,99467.50
2022-09-15T04:24:36.668Z,99465.66
2022-09-15T04:27:06.069Z,99466.69
2022-09-15T04:29:34.144Z,99479.19
2022-09-15T04:32:02.089Z,99483.50
2022-09-15T04:34:30.049Z,99488.81
2022-09-15T04:36:58.585Z,99492.69
2022-09-15T04:39:26.580Z,99495.53
2022-09-15T04:41:56.444Z,99485.06
2022-09-15T04:44:27.820Z,99487.81
2022-09-15T04:46:55.692Z,99502.50
2022-09-15T04:49:24.441Z,99501.63
2022-09-15T04:51:53.071Z,99506.66
2022-09-15T04:54:21.192Z,99504.38
2022-09-15T04:56:51.372Z,99509.44
2022-09-15T04:59:20.076Z,99513.56
2022-09-15T05:01:49.244Z,99520.53
2022-09-15T05:04:17.154Z,99517.03
2022-09-15T05:06:45.050Z,99519.34
2022-09-15T05:09:15.973Z,99526.69
2022-09-15T05:11:44.057Z,99524.28
2022-09-15T05:14:12.621Z,99532.09
2022-09-15T05:16:41.066Z,99531.94
2022-09-15T05:19:13.158Z,99535.16
2022-09-15T05:21:41.100Z,99536.16
2022-09-15T05:24:08.944Z,99540.66
2022-09-15T05:26:37.296Z,99544.16
2022-09-15T05:29:32.631Z,99559.91
2022-09-15T05:32:00.551Z,99548.47
2022-09-15T05:34:32.440Z,99560.28
2022-09-15T05:37:02.407Z,99560.94
2022-09-15T05:39:30.416Z,99560.75
2022-09-15T05:41:58.272Z,99563.25
2022-09-15T05:44:26.196Z,99557.72
2022-09-15T05:46:54.004Z,99561.56
2022-09-15T05:49:21.938Z,99569.47
2022-09-15T05:51:51.177Z,99569.84
2022-09-15T05:54:19.216Z,99572.66
2022-09-15T05:56:46.984Z,99570.84
2022-09-15T05:59:17.338Z,99574.34
2022-09-15T06:01:45.392Z,99561.66
2022-09-15T06:04:13.358Z,99575.16
2022-09-15T06:06:41.380Z,99574.53
2022-09-15T06:09:10.625Z,99578.84
2022-09-15T06:11:38.525Z,99581.56
2022-09-15T06:14:06.662Z,99589.84
2022-09-15T06:16:36.597Z,99596.19
2022-09-15T06:19:05.075Z,99582.69
2022-09-15T06:21:34.193Z,99583.78
2022-09-15T06:24:04.593Z,99589.09
2022-09-15T06:26:34.698Z,99585.25
2022-09-15T06:29:04.956Z,99599.19
2022-09-15T06:31:34.521Z,99601.78
2022-09-15T06:34:03.930Z,99605.28
2022-09-15T06:36:34.088Z,99612.25
2022-09-15T06:39:02.794Z,99607.56
2022-09-15T06:41:47.148Z,99604.28
2022-09-15T06:44:20.805Z,99606.38
2022-09-15T06:46:51.495Z,99615.00
2022-09-15T06:49:20.027Z,99617.94
2022-09-15T06:51:47.852Z,99616.75
2022-09-15T06:54:16.712Z,99617.03
2022-09-15T06:56:45.504Z,99625.91
2022-09-15T06:59:13.986Z,99616.16
2022-09-15T07:01:45.253Z,99630.13
2022-09-15T07:04:13.066Z,99634.44
2022-09-15T07:06:42.078Z,99636.72
2022-09-15T07:09:11.967Z,99636.91
2022-09-15T07:11:39.841Z,99642.69
2022-09-15T07:14:07.807Z,99648.28
2022-09-15T07:16:35.756Z,99642.19
2022-09-15T07:19:07.334Z,99642.66
2022-09-15T07:21:37.439Z,99649.25
2022-09-15T07:24:07.763Z,99648.88
2022-09-15T07:26:36.295Z,99649.16
2022-09-15T07:29:07.769Z,99651.63
2022-09-15T07:31:37.740Z,99650.41
2022-09-15T07:34:07.730Z,99650.22
2022-09-15T07:36:35.814Z,99652.75
2022-09-15T07:39:04.895Z,99657.97
2022-09-15T07:41:33.460Z,99648.78
2022-09-15T07:44:08.021Z,99657.63
2022-09-15T07:46:36.378Z,99654.13
2022-09-15T07:49:06.426Z,99653.66
2022-09-15T07:51:35.674Z,99660.84
2022-09-15T07:54:03.490Z,99669.31
2022-09-15T07:56:33.925Z,99659.47
2022-09-15T07:59:01.810Z,99672.22
2022-09-15T08:01:29.888Z,99670.44
2022-09-15T08:03:57.791Z,99674.22
2022-09-15T08:06:27.482Z,99678.13
2022-09-15T08:09:00.753Z,99685.13
2022-09-15T08:11:29.835Z,99685.56
2022-09-15T08:13:57.722Z,99681.13
2022-09-15T08:16:25.738Z,99690.78
2022-09-15T08:18:55.173Z,99698.69
2022-09-15T08:21:23.987Z,99689.25
2022-09-15T08:23:53.196Z,99700.19
2022-09-15T08:26:22.823Z,99698.31
2022-09-15T08:28:50.650Z,99703.88
2022-09-15T08:31:19.170Z,99700.63
2022-09-15T08:33:49.485Z,99712.56
2022-09-15T08:36:18.007Z,99715.09
2022-09-15T08:38:47.385Z,99720.69
2022-09-15T08:41:19.724Z,99718.84
2022-09-15T08:43:57.403Z,99718.25
2022-09-15T08:46:30.701Z,99725.56
2022-09-15T08:49:06.325Z,99720.66
2022-09-15T08:51:41.912Z,99720.47
2022-09-15T08:54:17.344Z,99721.09
2022-09-15T08:56:45.816Z,99724.19
2022-09-15T08:59:17.341Z,99723.16
2022-09-15T09:02:05.766Z,99724.63
2022-09-15T09:04:58.997Z,99733.09
2022-09-15T09:07:45.822Z,99720.00
2022-09-15T09:10:18.338Z,99721.66
2022-09-15T09:13:02.606Z,99722.09
2022-09-15T09:15:43.419Z,99730.53
2022-09-15T09:18:34.350Z,99723.19
2022-09-15T09:21:09.718Z,99724.91
2022-09-15T09:23:47.006Z,99722.88
2022-09-15T09:26:17.808Z,99724.31
2022-09-15T09:28:51.018Z,99724.13
2022-09-15T09:31:23.176Z,99730.50
2022-09-15T09:33:56.870Z,99729.66
2022-09-15T09:36:24.876Z,99722.66
2022-09-15T09:38:52.803Z,99728.44
2022-09-15T09:41:26.003Z,99729.47
2022-09-15T09:43:56.871Z,99731.72
2022-09-15T09:46:26.241Z,99731.31
2022-09-15T09:48:57.320Z,99734.22
2022-09-15T09:51:39.867Z,99732.22
2022-09-15T09:54:16.433Z,99731.25
2022-09-15T09:56:47.937Z,99735.19
2022-09-15T09:59:41.900Z,99730.25
2022-09-15T10:02:17.597Z,99736.13
2022-09-15T10:04:47.327Z,99731.28
2022-09-15T10:07:17.549Z,99736.41
2022-09-15T10:09:54.775Z,99741.56
2022-09-15T10:12:30.701Z,99735.38
2022-09-15T10:15:02.247Z,99736.44
2022-09-15T10:17:43.520Z,99729.41
2022-09-15T10:20:32.641Z,99727.41
2022-09-15T10:23:06.284Z,99730.13
2022-09-15T10:25:58.653Z,99722.16
2022-09-15T10:28:28.285Z,99721.97
2022-09-15T10:31:02.208Z,99727.50
2022-09-15T10:33:34.773Z,99726.47
2022-09-15T10:36:07.225Z,99730.00
2022-09-15T10:38:44.234Z,99737.81
2022-09-15T10:41:21.668Z,99734.16
2022-09-15T10:44:03.221Z,99734.38
2022-09-15T10:46:42.621Z,99736.66
2022-09-15T10:49:25.290Z,99730.84
2022-09-15T10:52:03.854Z,99735.38
2022-09-15T10:54:48.717Z,99734.97
2022-09-15T10:57:32.157Z,99726.31
2022-09-15T11:00:05.591Z,99735.38
2022-09-15T11:02:59.668Z,99731.69
2022-09-15T11:05:40.898Z,99731.09
2022-09-15T11:08:33.191Z,99733.34
2022-09-15T11:11:09.279Z,99732.91
2022-09-15T11:13:47.384Z,99730.84
2022-09-15T11:16:28.145Z,99731.88
2022-09-15T11:19:09.205Z,99725.06
2022-09-15T11:21:40.851Z,99731.25
2022-09-15T11:24:27.170Z,99722.81
2022-09-15T11:26:59.105Z,99729.00
2022-09-15T11:29:32.179Z,99738.66
2022-09-15T11:32:06.227Z,99744.84
2022-09-15T11:34:39.150Z,99744.22
2022-09-15T11:37:16.219Z,99747.75
2022-09-15T11:39:51.167Z,99749.84
2022-09-15T11:42:22.197Z,99736.41
2022-09-15T11:44:50.700Z,99756.44
2022-09-15T11:47:27.212Z,99752.06
2022-09-15T11:50:01.455Z,99745.06
2022-09-15T11:52:45.480Z,99759.00
2022-09-15T11:55:24.321Z,99753.59
2022-09-15T11:58:00.449Z,99750.91
2022-09-15T12:00:28.412Z,99758.50
2022-09-15T12:03:07.501Z,99761.41
2022-09-15T12:05:40.329Z,99754.00
2022-09-15T12:08:16.317Z,99761.88
2022-09-15T12:10:49.396Z,99754.06
2022-09-15T12:13:20.163Z,99750.50
2022-09-15T12:15:52.392Z,99750.09
2022-09-15T12:18:39.048Z,99752.59
2022-09-15T12:21:16.209Z,99750.91
2022-09-15T12:23:50.652Z,99759.19
2022-09-15T12:26:20.826Z,99752.59
2022-09-15T12:28:57.676Z,99758.09
2022-09-15T12:31:32.126Z,99760.53
2022-09-15T12:34:01.750Z,99750.22
2022-09-15T12:36:42.692Z,99748.81
2022-09-15T12:39:25.368Z,99746.13
2022-09-15T12:41:55.539Z,99748.91
2022-09-15T12:44:34.091Z,99750.44
2022-09-15T12:47:04.075Z,99742.41
2022-09-15T12:49:38.031Z,99749.00
2022-09-15T12:52:08.273Z,99753.75
2022-09-15T12:54:40.773Z,99751.25
2022-09-15T12:57:20.049Z,99759.50
2022-09-15T12:59:47.985Z,99758.88
2022-09-15T13:02:43.706Z,99764.88
2022-09-15T13:05:12.757Z,99762.81
2022-09-15T13:07:58.709Z,99760.34
2022-09-15T13:10:34.331Z,99770.00
2022-09-15T13:13:24.228Z,99775.94
2022-09-15T13:15:54.582Z,99776.56
2022-09-15T13:18:24.609Z,99778.25
2022-09-15T13:20:59.840Z,99774.13
2022-09-15T13:23:29.840Z,99782.56
2022-09-15T13:26:02.762Z,99777.78
2022-09-15T13:28:30.895Z,99775.72
2022-09-15T13:31:12.981Z,99776.75
2022-09-15T13:40:12.902Z,99763.19
2022-09-15T13:42:56.248Z,99768.94
2022-09-15T13:45:41.477Z,99754.31
2022-09-15T13:48:31.141Z,99763.38
2022-09-15T13:51:02.126Z,99761.94
2022-09-15T13:53:47.893Z,99773.06
2022-09-15T13:56:23.244Z,99764.22
2022-09-15T13:59:05.345Z,99774.72
2022-09-15T14:01:38.772Z,99762.16
2022-09-15T14:04:10.753Z,99764.84
2022-09-15T14:06:42.614Z,99763.41
2022-09-15T14:09:15.785Z,99771.25
2022-09-15T14:11:44.834Z,99766.31
2022-09-15T14:14:32.345Z,99765.66
2022-09-15T14:17:02.607Z,99767.34
2022-09-15T14:19:34.288Z,99764.66
2022-09-15T14:22:03.503Z,99764.47
2022-09-15T14:24:33.058Z,99766.50
2022-09-15T14:27:10.190Z,99763.41
2022-09-15T14:29:43.532Z,99763.56
2022-09-15T14:32:15.747Z,99761.91
2022-09-15T14:34:45.173Z,99769.69
2022-09-15T14:37:18.977Z,99768.44
2022-09-15T14:39:50.379Z,99769.88
2022-09-15T14:42:22.961Z,99766.19
2022-09-15T14:47:43.444Z,99756.78
2022-09-15T14:50:15.629Z,99760.53
2022-09-15T14:52:45.114Z,99752.66
2022-09-15T14:55:16.686Z,99758.13
2022-09-15T14:57:49.000Z,99752.25
2022-09-15T15:00:23.415Z,99750.50
2022-09-15T15:03:00.915Z,99751.91
2022-09-15T15:05:34.507Z,99749.31
2022-09-15T15:08:05.838Z,99739.94
2022-09-15T15:10:36.736Z,99734.88
2022-09-15T15:13:08.286Z,99740.25
2022-09-15T15:15:38.570Z,99741.69
2022-09-15T15:18:31.603Z,99740.03
2022-09-15T15:21:00.061Z,99740.53
2022-09-15T15:23:31.959Z,99743.03
2022-09-15T15:26:33.824Z,99746.84
2022-09-15T15:29:01.773Z,99740.56
2022-09-15T15:31:31.352Z,99740.66
2022-09-15T15:34:05.222Z,99738.34
2022-09-15T15:36:35.601Z,99746.75
2022-09-15T15:39:07.127Z,99751.06
2022-09-15T15:41:37.235Z,99745.59
2022-09-15T15:44:08.751Z,99746.44
2022-09-15T15:46:49.774Z,99750.47
2022-09-15T15:49:18.321Z,99747.22
2022-09-15T15:51:46.122Z,99754.31
2022-09-15T15:54:14.781Z,99753.72
2022-09-15T15:56:42.721Z,99758.94
2022-09-15T15:59:13.539Z,99762.47
2022-09-15T16:01:41.679Z,99760.69
2022-09-15T16:04:12.119Z,99761.97
2022-09-15T16:06:40.465Z,99760.09
2022-09-15T16:09:08.370Z,99764.66
2022-09-15T16:11:36.258Z,99772.06
2022-09-15T16:14:04.183Z,99776.63
2022-09-15T16:16:33.620Z,99777.03
2022-09-15T16:19:01.551Z,99778.06
2022-09-15T16:21:37.240Z,99781.56
2022-09-15T16:24:06.169Z,99777.88
2022-09-15T16:26:35.555Z,99776.84
2022-09-15T16:29:03.545Z,99781.56
2022-09-15T16:31:31.971Z,99781.97
2022-09-15T16:33:59.913Z,99779.84
2022-09-15T16:36:27.925Z,99782.94
2022-09-15T16:38:57.170Z,99785.97
2022-09-15T16:41:25.693Z,99785.91
2022-09-15T16:43:55.685Z,99783.81
2022-09-15T16:46:23.720Z,99785.41
2022-09-15T16:48:51.922Z,99784.13
2022-09-15T16:51:31.386Z,99791.44
2022-09-15T16:54:00.977Z,99790.28
2022-09-15T16:56:29.358Z,99790.22
2022-09-15T16:59:00.424Z,99789.63
2022-09-15T17:01:29.121Z,99782.38
2022-09-15T17:03:57.497Z,99792.16
2022-09-15T17:06:25.276Z,99788.19
2022-09-15T17:08:53.384Z,99788.81
2022-09-15T17:11:23.798Z,99793.31
2022-09-15T17:13:52.253Z,99794.16
2022-09-15T17:16:20.498Z,99791.03
2022-09-15T17:18:49.177Z,99792.66
2022-09-15T17:21:19.793Z,99795.34
2022-09-15T17:23:49.430Z,99796.47
2022-09-15T17:26:20.642Z,99797.91
2022-09-15T17:28:50.388Z,99800.34
2022-09-15T17:31:21.126Z,99795.56
2022-09-15T17:33:50.464Z,99792.06
2022-09-15T17:36:18.598Z,99798.22
2022-09-15T17:38:48.697Z,99800.44
2022-09-15T17:41:17.994Z,99803.91
2022-09-15T17:43:46.093Z,99804.50
2022-09-15T17:46:15.346Z,99806.34
2022-09-15T17:48:43.381Z,99805.53
2022-09-15T17:51:17.924Z,99811.06
2022-09-15T17:53:46.838Z,99801.34
2022-09-15T17:56:14.857Z,99808.50
2022-09-15T17:58:43.160Z,99813.19
2022-09-15T18:01:15.644Z,99820.78
2022-09-15T18:03:44.964Z,99820.69
2022-09-15T18:06:13.683Z,99821.94
2022-09-15T18:08:41.659Z,99819.44
2022-09-15T18:11:15.093Z,99823.94
2022-09-15T18:13:43.360Z,99824.97
2022-09-15T18:16:13.793Z,99826.81
2022-09-15T18:18:43.532Z,99830.47
2022-09-15T18:21:23.427Z,99837.09
2022-09-15T18:23:51.399Z,99833.38
2022-09-15T18:26:23.856Z,99837.09
2022-09-15T18:28:54.214Z,99839.72
2022-09-15T18:31:22.311Z,99844.19
2022-09-15T18:33:52.299Z,99850.28
2022-09-15T18:36:20.573Z,99849.75
2022-09-15T18:38:48.479Z,99853.56
2022-09-15T18:41:16.341Z,99860.66
2022-09-15T18:43:48.753Z,99858.59
2022-09-15T18:46:17.097Z,99853.16
2022-09-15T18:48:44.863Z,99865.91
2022-09-15T18:51:23.830Z,99865.75
2022-09-15T18:53:57.363Z,99875.09
2022-09-15T18:56:25.127Z,99875.94
2022-09-15T18:58:53.374Z,99886.38
2022-09-15T19:01:21.446Z,99886.16
2022-09-15T19:03:49.521Z,99892.81
2022-09-15T19:06:18.642Z,99887.13
2022-09-15T19:08:46.481Z,99891.38
2022-09-15T19:11:14.414Z,99893.47
2022-09-15T19:13:42.270Z,99902.38
2022-09-15T19:16:10.404Z,99903.13
2022-09-15T19:18:38.927Z,99900.78
2022-09-15T19:21:08.061Z,99908.91
2022-09-15T19:23:37.857Z,99908.78
2022-09-15T19:26:07.054Z,99899.25
2022-09-15T19:28:35.315Z,99896.56
2022-09-15T19:31:03.177Z,99897.09
2022-09-15T19:33:31.123Z,99893.06
2022-09-15T19:36:17.285Z,99889.56
2022-09-15T19:38:52.192Z,99882.47
2022-09-15T19:41:22.969Z,99895.53
2022-09-15T19:43:50.922Z,99901.50
2022-09-15T19:46:21.352Z,99898.09
2022-09-15T19:48:50.205Z,99897.81
2022-09-15T19:51:19.263Z,99907.69
2022-09-15T19:53:47.840Z,99910.56
2022-09-15T19:56:19.702Z,99903.38
2022-09-15T19:58:47.579Z,99906.41
2022-09-15T20:01:15.561Z,99909.94
2022-09-15T20:03:43.515Z,99900.00
2022-09-15T20:06:11.381Z,99899.72
2022-09-15T20:08:41.495Z,99893.44
2022-09-15T20:11:10.592Z,99897.88
2022-09-15T20:13:41.473Z,99901.09
2022-09-15T20:16:09.563Z,99901.91
2022-09-15T20:18:41.163Z,99898.22
2022-09-15T20:21:12.358Z,99894.59
2022-09-15T20:23:50.446Z,99889.88
2022-09-15T20:26:19.223Z,99895.09
2022-09-15T20:28:48.524Z,99902.38
2022-09-15T20:31:19.148Z,99897.75
2022-09-15T20:33:48.800Z,99908.63
2022-09-15T20:36:18.557Z,99908.25
2022-09-15T20:38:47.581Z,99907.06
2022-09-15T20:41:19.692Z,99908.25
2022-09-15T20:43:53.978Z,99909.47
2022-09-15T20:46:23.551Z,99913.31
2022-09-15T20:48:52.387Z,99916.94
2022-09-15T20:51:22.630Z,99917.31
2022-09-15T20:53:52.603Z,99917.22
2022-09-15T20:56:25.239Z,99919.53
2022-09-15T20:58:55.474Z,99924.00
2022-09-15T21:01:24.895Z,99922.81
2022-09-15T21:03:55.259Z,99923.00
2022-09-15T21:06:24.876Z,99923.84
2022-09-15T21:08:53.241Z,99928.78
2022-09-15T21:11:23.163Z,99932.06
2022-09-15T21:13:51.429Z,99938.25
2022-09-15T21:16:25.198Z,99932.72
2022-09-15T21:18:53.371Z,99931.13
2022-09-15T21:21:23.178Z,99928.25
2022-09-15T21:23:54.195Z,99933.78
2022-09-15T21:26:23.437Z,99931.19
2022-09-15T21:28:52.051Z,99927.66
2022-09-15T21:31:21.584Z,99933.09
2022-09-15T21:33:52.382Z,99934.81
2022-09-15T21:36:22.392Z,99937.84
2022-09-15T21:38:51.899Z,99940.34
2022-09-15T21:41:21.974Z,99952.00
2022-09-15T21:43:53.077Z,99948.88
2022-09-15T21:46:22.275Z,99953.84
2022-09-15T21:48:51.977Z,99957.34
2022-09-15T21:51:24.536Z,99957.69
2022-09-15T21:53:54.468Z,99954.16
2022-09-15T21:56:23.262Z,99960.47
2022-09-15T21:58:51.416Z,99964.81
2022-09-15T22:01:21.112Z,99957.66
2022-09-15T22:03:52.398Z,99956.34
2022-09-15T22:06:21.383Z,99962.31
2022-09-15T22:08:49.685Z,99956.94
2022-09-15T22:11:17.501Z,99951.44
2022-09-15T22:13:45.560Z,99959.31
2022-09-15T22:16:17.714Z,99960.38
2022-09-15T22:18:46.443Z,99959.69
2022-09-15T22:21:17.587Z,99965.69
2022-09-15T22:23:49.457Z,99963.19
2022-09-15T22:26:20.362Z,99955.84
2022-09-15T22:28:48.647Z,99954.38
2022-09-15T22:31:19.138Z,99956.84
2022-09-15T22:33:47.352Z,99964.19
2022-09-15T22:36:18.414Z,99962.34
2022-09-15T22:38:47.015Z,99959.88
2022-09-15T22:41:17.477Z,99964.38
2022-09-15T22:43:47.946Z,99961.53
2022-09-15T22:46:16.431Z,99961.53
2022-09-15T22:48:44.290Z,99961.72
2022-09-15T22:51:12.981Z,99956.75
2022-09-15T22:53:42.672Z,99958.19
2022-09-15T22:56:14.513Z,99958.41
2022-09-15T22:58:44.078Z,99963.03
2022-09-15T23:01:13.836Z,99960.38
2022-09-15T23:03:43.620Z,99959.72
2022-09-15T23:06:11.687Z,99963.25
2022-09-15T23:08:39.598Z,99963.25
2022-09-15T23:11:10.565Z,99960.09
2022-09-15T23:13:39.486Z,99962.09
2022-09-15T23:16:08.832Z,99966.06
2022-09-15T23:18:37.655Z,99967.25
2022-09-15T23:21:09.172Z,99969.75
2022-09-15T23:23:39.009Z,99962.75
2022-09-15T23:26:10.363Z,99965.22
2022-09-15T23:28:39.912Z,99964.59
2022-09-15T23:31:08.993Z,99967.25
2022-09-15T23:33:36.989Z,99967.06
2022-09-15T23:36:06.922Z,99967.41
2022-09-15T23:38:37.023Z,99973.56
2022-09-15T23:41:05.375Z,99969.41
2022-09-15T23:43:35.112Z,99966.75
2022-09-15T23:46:07.406Z,99971.28
2022-09-15T23:48:35.439Z,99961.63
2022-09-15T23:51:04.174Z,99962.66
2022-09-15T23:53:32.082Z,99959.19
2022-09-15T23:55:59.998Z,99958.34
2022-09-15T23:58:28.545Z,99972.66
